Time;durP1;ratioP1;P1;durP2;ratioP2;P2;SDS_P1;SDS_P2;PMS_P1;PMS_P2;Temp;Humidity;BMP_temperature;BMP_pressure;BME280_temperature;BME280_humidity;BME280_pressure;Samples;Min_cycle;Max_cycle;Signal;HPM_P1;HPM_P2
2022/02/27 00:01:09;;;;;;;0.40;0.20;;;2.60;91.20;;;;;;4973261;28;20879;-73
2022/02/27 00:03:35;;;;;;;0.40;0.20;;;2.50;91.20;;;;;;4989631;28;20398;-74
2022/02/27 00:06:01;;;;;;;0.40;0.20;;;2.50;92.20;;;;;;4990867;28;20410;-73
2022/02/27 00:08:27;;;;;;;0.40;0.20;;;2.50;91.80;;;;;;4975146;28;20397;-73
2022/02/27 00:10:53;;;;;;;0.40;0.30;;;2.60;91.90;;;;;;4993725;28;20818;-73
2022/02/27 00:13:18;;;;;;;0.40;0.20;;;2.60;91.80;;;;;;4993997;28;20398;-73
2022/02/27 00:15:44;;;;;;;0.90;0.60;;;2.60;92.10;;;;;;4993089;28;20452;-73
2022/02/27 00:18:10;;;;;;;0.40;0.20;;;2.50;91.60;;;;;;4976643;28;20734;-73
2022/02/27 00:20:36;;;;;;;0.40;0.40;;;2.50;92.00;;;;;;4993241;28;20450;-73
2022/02/27 00:23:01;;;;;;;0.40;0.20;;;2.60;92.00;;;;;;4993785;28;20383;-72
2022/02/27 00:25:27;;;;;;;0.40;0.20;;;2.50;91.80;;;;;;4976329;28;20496;-72
2022/02/27 00:27:53;;;;;;;0.40;0.20;;;2.50;91.70;;;;;;4993463;28;20422;-72
2022/02/27 00:30:19;;;;;;;0.40;0.20;;;2.40;92.10;;;;;;4994090;28;20394;-72
2022/02/27 00:32:45;;;;;;;0.40;0.30;;;2.40;91.80;;;;;;4993055;28;20383;-72
2022/02/27 00:35:10;;;;;;;0.40;0.25;;;2.40;92.10;;;;;;4993591;28;20397;-72
2022/02/27 00:37:36;;;;;;;0.40;0.20;;;2.40;92.50;;;;;;4993024;28;20905;-73
2022/02/27 00:40:04;;;;;;;0.40;0.20;;;2.50;91.80;;;;;;4975645;28;20401;-72
2022/02/27 00:42:30;;;;;;;0.40;0.20;;;2.50;91.90;;;;;;4993324;28;20405;-72
2022/02/27 00:44:56;;;;;;;0.40;0.20;;;2.40;92.20;;;;;;4975241;28;20426;-72
2022/02/27 00:47:21;;;;;;;0.40;0.20;;;2.50;92.10;;;;;;4993164;28;20419;-72
2022/02/27 00:49:47;;;;;;;0.40;0.20;;;2.40;92.00;;;;;;4992247;28;20695;-73
2022/02/27 00:52:13;;;;;;;0.40;0.40;;;2.40;91.90;;;;;;4975684;28;20401;-71
2022/02/27 00:54:39;;;;;;;0.40;0.30;;;2.40;92.40;;;;;;4993707;28;20391;-72
2022/02/27 00:57:04;;;;;;;0.40;0.20;;;2.30;92.50;;;;;;4992956;28;20386;-72
2022/02/27 00:59:30;;;;;;;0.40;0.20;;;2.30;93.00;;;;;;4975836;28;20390;-72
2022/02/27 01:01:56;;;;;;;0.40;0.20;;;2.30;92.30;;;;;;4974999;28;20435;-72
2022/02/27 01:04:22;;;;;;;0.40;0.20;;;2.30;92.50;;;;;;4992834;28;20386;-72
2022/02/27 01:06:47;;;;;;;0.40;0.20;;;2.30;92.00;;;;;;4992597;28;20393;-72
2022/02/27 01:09:13;;;;;;;0.40;0.20;;;2.30;92.00;;;;;;4974362;28;20398;-71
2022/02/27 01:11:39;;;;;;;0.40;0.20;;;2.30;91.90;;;;;;4971969;28;20498;-72
2022/02/27 01:14:05;;;;;;;0.40;0.23;;;2.30;92.10;;;;;;4972624;28;20435;-72
2022/02/27 01:16:30;;;;;;;0.40;0.30;;;2.30;91.80;;;;;;4973178;28;20396;-72
2022/02/27 01:18:56;;;;;;;0.40;0.30;;;2.20;91.90;;;;;;5003909;28;20412;-72
2022/02/27 01:21:22;;;;;;;0.40;0.20;;;2.30;91.70;;;;;;4972419;28;20411;-72
2022/02/27 01:23:48;;;;;;;0.40;0.30;;;2.30;91.40;;;;;;5004568;28;20949;-72
2022/02/27 01:26:14;;;;;;;0.40;0.20;;;2.30;91.70;;;;;;4972594;28;20420;-73
2022/02/27 01:28:40;;;;;;;0.40;0.20;;;2.20;92.10;;;;;;4972882;28;20881;-72
2022/02/27 01:31:09;;;;;;;0.40;0.20;;;2.20;91.80;;;;;;4972964;28;20391;-72
2022/02/27 01:33:36;;;;;;;0.40;0.20;;;2.20;91.90;;;;;;4972625;28;20396;-72
2022/02/27 01:36:02;;;;;;;0.40;0.20;;;2.20;91.90;;;;;;4973281;28;20416;-72
2022/02/27 01:38:28;;;;;;;0.40;0.20;;;2.20;91.90;;;;;;4972699;28;20404;-72
2022/02/27 01:40:54;;;;;;;0.40;0.20;;;2.20;92.00;;;;;;4971722;28;20415;-72
2022/02/27 01:43:20;;;;;;;0.40;0.20;;;2.10;92.10;;;;;;4972794;28;20384;-73
2022/02/27 01:45:47;;;;;;;0.40;0.20;;;2.10;92.10;;;;;;5003682;28;20491;-72
2022/02/27 01:48:13;;;;;;;0.40;0.20;;;2.10;91.80;;;;;;4973001;28;20384;-72
2022/02/27 01:50:39;;;;;;;0.40;0.20;;;2.10;92.10;;;;;;4972043;28;20462;-72
2022/02/27 01:53:05;;;;;;;0.40;0.20;;;2.10;91.60;;;;;;4973271;28;20393;-72
2022/02/27 01:55:31;;;;;;;0.40;0.20;;;2.10;92.10;;;;;;4972202;28;20394;-72
2022/02/27 01:57:57;;;;;;;0.40;0.20;;;2.10;91.70;;;;;;4972880;28;20446;-73
2022/02/27 02:00:23;;;;;;;0.40;0.20;;;2.00;91.60;;;;;;4970803;28;20391;-74
2022/02/27 02:02:48;;;;;;;0.40;0.20;;;2.00;91.20;;;;;;4970764;28;20392;-74
2022/02/27 02:05:15;;;;;;;0.40;0.20;;;2.00;91.10;;;;;;4972059;28;20440;-74
2022/02/27 02:07:41;;;;;;;0.40;0.20;;;2.00;91.50;;;;;;4970627;28;20438;-73
2022/02/27 02:10:08;;;;;;;0.40;0.20;;;2.00;91.10;;;;;;4972633;28;20380;-74
2022/02/27 02:12:34;;;;;;;0.40;0.20;;;2.00;91.30;;;;;;4992027;28;20460;-73
2022/02/27 02:15:00;;;;;;;0.40;0.20;;;2.00;91.00;;;;;;4991317;28;20472;-72
2022/02/27 02:17:28;;;;;;;0.40;0.20;;;2.00;90.60;;;;;;4991860;28;20422;-73
2022/02/27 02:19:55;;;;;;;0.40;0.20;;;2.10;90.90;;;;;;4990846;28;20391;-74
2022/02/27 02:22:20;;;;;;;0.40;0.20;;;2.10;91.10;;;;;;4992006;28;20784;-74
2022/02/27 02:24:47;;;;;;;0.40;0.20;;;2.00;90.80;;;;;;4974432;28;20625;-74
2022/02/27 02:27:12;;;;;;;0.40;0.20;;;2.00;91.00;;;;;;4991920;28;20375;-73
2022/02/27 02:29:38;;;;;;;0.40;0.20;;;2.00;91.40;;;;;;4991899;28;20812;-73
2022/02/27 02:32:05;;;;;;;0.40;0.20;;;2.00;90.80;;;;;;4990045;28;20386;-72
2022/02/27 02:34:30;;;;;;;0.40;0.30;;;1.90;91.20;;;;;;4991984;28;20386;-73
2022/02/27 02:36:57;;;;;;;0.40;0.20;;;2.00;91.10;;;;;;4991053;28;20921;-75
2022/02/27 02:39:24;;;;;;;0.40;0.20;;;2.00;91.30;;;;;;4991775;28;20387;-73
2022/02/27 02:41:50;;;;;;;0.40;0.30;;;2.00;91.00;;;;;;4991575;28;20386;-73
2022/02/27 02:44:16;;;;;;;0.40;0.20;;;2.00;91.30;;;;;;4990465;28;20390;-74
2022/02/27 02:46:42;;;;;;;0.40;0.20;;;2.00;91.30;;;;;;4991262;28;20474;-73
2022/02/27 02:49:09;;;;;;;0.40;0.25;;;2.00;91.30;;;;;;4990219;28;20383;-74
2022/02/27 02:51:35;;;;;;;0.40;0.40;;;2.00;91.10;;;;;;4973617;28;20477;-74
2022/02/27 02:54:01;;;;;;;0.40;0.20;;;2.00;90.90;;;;;;4991257;28;20399;-73
2022/02/27 02:56:27;;;;;;;0.40;0.20;;;1.90;91.10;;;;;;4990623;28;20402;-71
2022/02/27 02:58:53;;;;;;;0.40;0.20;;;1.90;91.40;;;;;;4990867;28;20756;-71
2022/02/27 03:01:22;;;;;;;0.40;0.20;;;1.90;91.70;;;;;;4990472;28;20391;-73
2022/02/27 03:03:49;;;;;;;0.40;0.30;;;1.90;91.60;;;;;;4991320;28;20449;-73
2022/02/27 03:06:16;;;;;;;0.40;0.20;;;1.90;91.90;;;;;;4990362;28;20409;-75
2022/02/27 03:08:43;;;;;;;0.40;0.20;;;1.90;91.90;;;;;;4991140;28;20391;-73
2022/02/27 03:11:09;;;;;;;0.40;0.20;;;1.90;91.60;;;;;;4990915;28;20402;-74
2022/02/27 03:13:36;;;;;;;0.40;0.20;;;1.90;91.50;;;;;;4973220;28;20402;-74
2022/02/27 03:16:02;;;;;;;0.40;0.20;;;1.90;91.50;;;;;;4973748;28;20399;-73
2022/02/27 03:18:28;;;;;;;0.40;0.20;;;1.90;91.50;;;;;;4990460;28;20386;-74
2022/02/27 03:20:54;;;;;;;0.40;0.20;;;2.00;91.40;;;;;;4990394;28;20910;-73
2022/02/27 03:23:20;;;;;;;0.40;0.20;;;2.00;91.40;;;;;;4991354;28;20386;-73
2022/02/27 03:25:45;;;;;;;0.40;0.20;;;2.00;91.80;;;;;;4990311;28;20413;-73
2022/02/27 03:28:11;;;;;;;0.40;0.20;;;1.90;91.60;;;;;;4991053;28;20836;-73
2022/02/27 03:30:38;;;;;;;0.40;0.20;;;2.00;91.70;;;;;;4972333;28;20760;-74
2022/02/27 03:33:05;;;;;;;0.40;0.20;;;2.10;91.50;;;;;;4990955;28;20470;-74
2022/02/27 03:35:31;;;;;;;0.40;0.20;;;2.00;91.80;;;;;;4990549;28;20386;-74
2022/02/27 03:37:56;;;;;;;0.40;0.20;;;1.90;91.40;;;;;;4990623;28;20390;-73
2022/02/27 03:40:22;;;;;;;0.40;0.20;;;2.00;91.40;;;;;;4991210;28;20394;-74
2022/02/27 03:42:48;;;;;;;0.40;0.20;;;2.10;90.80;;;;;;4991925;28;20383;-73
2022/02/27 03:45:14;;;;;;;0.40;0.20;;;2.00;90.50;;;;;;4977350;28;20753;-74
2022/02/27 03:47:42;;;;;;;0.40;0.20;;;2.10;90.70;;;;;;4976134;28;20461;-74
2022/02/27 03:50:13;;;;;;;0.40;0.20;;;2.00;90.60;;;;;;4994692;28;20430;-74
2022/02/27 03:52:39;;;;;;;0.40;0.20;;;2.00;90.80;;;;;;4977880;28;20386;-73
2022/02/27 03:55:06;;;;;;;0.40;0.20;;;2.00;90.60;;;;;;4993435;28;20639;-74
2022/02/27 03:57:32;;;;;;;0.40;0.20;;;2.00;90.80;;;;;;4976216;28;20421;-72
2022/02/27 03:59:57;;;;;;;0.40;0.20;;;2.00;90.50;;;;;;4993944;28;20438;-74
2022/02/27 04:02:23;;;;;;;0.40;0.20;;;2.00;90.50;;;;;;4994607;28;20410;-73
2022/02/27 04:04:49;;;;;;;0.40;0.30;;;2.00;90.30;;;;;;4976446;28;20994;-74
2022/02/27 04:07:15;;;;;;;0.50;0.50;;;2.10;90.00;;;;;;4993558;28;20413;-74
2022/02/27 04:09:41;;;;;;;0.70;0.70;;;2.10;90.30;;;;;;4994100;28;20875;-73
2022/02/27 04:12:07;;;;;;;0.40;0.30;;;2.00;91.10;;;;;;4993638;28;20438;-74
2022/02/27 04:14:33;;;;;;;0.40;0.20;;;2.00;90.30;;;;;;4994275;28;20902;-73
2022/02/27 04:16:59;;;;;;;0.40;0.20;;;2.10;89.90;;;;;;4993370;28;20859;-74
2022/02/27 04:19:24;;;;;;;0.40;0.20;;;2.00;90.00;;;;;;4993619;28;20798;-73
2022/02/27 04:21:50;;;;;;;0.40;0.20;;;2.00;90.00;;;;;;4976019;28;20902;-73
2022/02/27 04:24:16;;;;;;;0.40;0.20;;;2.00;90.10;;;;;;4993090;28;20429;-73
2022/02/27 04:26:43;;;;;;;0.40;0.20;;;2.00;90.00;;;;;;4993874;28;20422;-74
2022/02/27 04:29:09;;;;;;;0.40;0.20;;;2.00;90.00;;;;;;4975862;28;20869;-74
2022/02/27 04:31:35;;;;;;;0.40;0.20;;;2.00;89.80;;;;;;4994067;28;20388;-73
2022/02/27 04:34:01;;;;;;;0.40;0.20;;;1.90;90.00;;;;;;4976512;28;20766;-74
2022/02/27 04:36:27;;;;;;;0.40;0.20;;;2.00;89.80;;;;;;4993027;28;20886;-74
2022/02/27 04:38:53;;;;;;;0.40;0.20;;;2.00;89.30;;;;;;4993825;28;20473;-73
2022/02/27 04:41:19;;;;;;;0.40;0.25;;;1.90;89.80;;;;;;4975677;28;20402;-74
2022/02/27 04:43:46;;;;;;;0.40;0.20;;;2.00;88.50;;;;;;4994055;28;20453;-73
2022/02/27 04:46:12;;;;;;;0.40;0.20;;;2.00;89.00;;;;;;4993838;28;20419;-73
2022/02/27 04:48:38;;;;;;;0.40;0.20;;;2.10;88.20;;;;;;4975664;28;21113;-74
2022/02/27 04:51:04;;;;;;;0.40;0.20;;;2.10;88.50;;;;;;4976123;28;20807;-73
2022/02/27 04:53:30;;;;;;;0.40;0.20;;;2.00;87.70;;;;;;4992389;28;20374;-73
2022/02/27 04:55:55;;;;;;;0.40;0.20;;;2.00;87.30;;;;;;4993495;28;20390;-74
2022/02/27 04:58:21;;;;;;;0.40;0.20;;;2.10;87.10;;;;;;4993271;28;20543;-73
2022/02/27 05:00:47;;;;;;;0.40;0.20;;;2.00;86.70;;;;;;4992591;28;20390;-73
2022/02/27 05:03:12;;;;;;;0.40;0.20;;;2.10;86.30;;;;;;4993188;28;20387;-73
2022/02/27 05:05:38;;;;;;;0.40;0.20;;;2.10;86.50;;;;;;4992600;28;20529;-74
2022/02/27 05:08:04;;;;;;;0.40;0.20;;;2.20;85.30;;;;;;4993142;28;20445;-74
2022/02/27 05:10:31;;;;;;;0.40;0.20;;;2.10;84.70;;;;;;4992978;28;20476;-73
2022/02/27 05:12:57;;;;;;;0.40;0.20;;;2.10;84.70;;;;;;4975474;28;20405;-73
2022/02/27 05:15:24;;;;;;;0.40;0.20;;;2.10;84.70;;;;;;4993100;28;20473;-72
2022/02/27 05:17:50;;;;;;;0.40;0.20;;;2.20;84.20;;;;;;4974401;28;20394;-72
2022/02/27 05:20:16;;;;;;;0.40;0.20;;;2.20;84.40;;;;;;4959443;28;20463;-72
2022/02/27 05:22:43;;;;;;;0.40;0.20;;;2.20;84.10;;;;;;4992107;28;20387;-73
2022/02/27 05:25:10;;;;;;;0.40;0.20;;;2.20;83.40;;;;;;4975276;28;20429;-72
2022/02/27 05:27:36;;;;;;;0.40;0.20;;;2.20;84.70;;;;;;4993061;28;20397;-72
2022/02/27 05:30:02;;;;;;;0.40;0.20;;;2.30;83.60;;;;;;4992134;28;20387;-72
2022/02/27 05:32:27;;;;;;;0.40;0.20;;;2.20;83.20;;;;;;4992254;28;20422;-73
2022/02/27 05:34:53;;;;;;;0.40;0.20;;;2.20;83.00;;;;;;4992189;28;20431;-73
2022/02/27 05:37:18;;;;;;;0.40;0.30;;;2.20;83.00;;;;;;4992887;28;20377;-72
2022/02/27 05:39:44;;;;;;;0.40;0.20;;;2.20;83.00;;;;;;4991981;28;20402;-72
2022/02/27 05:42:10;;;;;;;0.40;0.30;;;2.10;82.70;;;;;;4974577;28;20393;-72
2022/02/27 05:44:36;;;;;;;0.40;0.20;;;2.20;82.30;;;;;;4992438;28;20852;-72
2022/02/27 05:47:02;;;;;;;0.40;0.20;;;2.20;82.00;;;;;;4974426;28;20413;-73
2022/02/27 05:49:27;;;;;;;0.40;0.20;;;2.20;82.30;;;;;;4992316;28;20855;-72
2022/02/27 05:51:53;;;;;;;0.40;0.20;;;2.20;82.90;;;;;;4992843;28;20413;-72
2022/02/27 05:54:19;;;;;;;0.40;0.20;;;2.10;82.80;;;;;;4991429;28;20383;-73
2022/02/27 05:56:44;;;;;;;0.40;0.20;;;2.10;82.80;;;;;;4992241;28;20410;-72
2022/02/27 05:59:10;;;;;;;0.40;0.20;;;2.10;83.30;;;;;;4991613;28;20452;-72
2022/02/27 06:01:36;;;;;;;0.40;0.20;;;2.10;83.90;;;;;;4991671;28;20545;-72
2022/02/27 06:04:01;;;;;;;0.40;0.30;;;2.20;84.20;;;;;;4992087;28;20394;-72
2022/02/27 06:06:27;;;;;;;0.40;0.20;;;2.00;83.70;;;;;;4991109;28;20414;-72
2022/02/27 06:08:53;;;;;;;0.40;0.20;;;2.10;84.70;;;;;;4992419;28;20387;-72
2022/02/27 06:11:18;;;;;;;0.40;0.20;;;2.10;83.90;;;;;;4970543;28;20900;-72
2022/02/27 06:13:44;;;;;;;0.40;0.20;;;2.00;84.70;;;;;;4972470;28;20412;-72
2022/02/27 06:16:10;;;;;;;0.40;0.20;;;2.00;84.70;;;;;;4971659;28;20487;-72
2022/02/27 06:18:35;;;;;;;0.40;0.20;;;2.00;85.40;;;;;;4972241;28;20395;-72
2022/02/27 06:21:01;;;;;;;0.40;0.20;;;2.00;85.50;;;;;;4970705;28;20764;-72
2022/02/27 06:23:27;;;;;;;0.40;0.20;;;2.00;86.00;;;;;;4971746;28;20401;-73
2022/02/27 06:25:52;;;;;;;0.40;0.20;;;2.10;86.20;;;;;;4971252;28;20417;-72
2022/02/27 06:28:18;;;;;;;0.40;0.20;;;2.10;86.30;;;;;;4972145;28;20854;-71
2022/02/27 06:30:44;;;;;;;0.40;0.20;;;2.10;86.50;;;;;;4971739;28;20480;-72
2022/02/27 06:33:09;;;;;;;0.40;0.20;;;2.00;87.40;;;;;;4972247;28;20439;-72
2022/02/27 06:35:35;;;;;;;0.40;0.20;;;2.00;87.30;;;;;;4969683;28;20399;-74
2022/02/27 06:38:01;;;;;;;0.40;0.22;;;2.10;88.40;;;;;;4972080;28;20400;-72
2022/02/27 06:40:26;;;;;;;0.40;0.20;;;2.10;87.80;;;;;;4972296;28;20479;-72
2022/02/27 06:42:52;;;;;;;0.40;0.20;;;2.10;87.80;;;;;;4971448;28;20487;-72
2022/02/27 06:45:18;;;;;;;0.40;0.20;;;2.10;88.10;;;;;;4971996;28;20475;-73
2022/02/27 06:47:44;;;;;;;0.40;0.20;;;2.10;88.40;;;;;;4971710;28;20404;-73
2022/02/27 06:50:11;;;;;;;0.40;0.20;;;2.10;89.10;;;;;;4972165;28;20415;-72
2022/02/27 06:52:38;;;;;;;0.40;0.20;;;2.10;88.90;;;;;;4970753;28;20483;-72
2022/02/27 06:55:04;;;;;;;0.40;0.20;;;2.20;89.30;;;;;;4970028;28;20481;-72
2022/02/27 06:57:30;;;;;;;0.50;0.50;;;2.20;89.20;;;;;;4972200;28;20388;-72
2022/02/27 06:59:56;;;;;;;0.40;0.30;;;2.30;89.30;;;;;;4971422;28;20407;-72
2022/02/27 07:02:21;;;;;;;0.40;0.20;;;2.30;89.60;;;;;;4972006;28;20389;-72
2022/02/27 07:04:47;;;;;;;0.40;0.20;;;2.30;89.90;;;;;;4972127;28;20447;-72
2022/02/27 07:07:13;;;;;;;0.40;0.20;;;2.30;90.30;;;;;;4971039;28;20430;-72
2022/02/27 07:09:39;;;;;;;0.40;0.20;;;2.40;90.30;;;;;;4971368;28;20400;-72
2022/02/27 07:12:05;;;;;;;0.40;0.20;;;2.40;90.50;;;;;;4986816;28;20418;-72
2022/02/27 07:14:30;;;;;;;0.40;0.20;;;2.50;90.20;;;;;;4973838;28;20402;-73
2022/02/27 07:16:56;;;;;;;0.40;0.20;;;2.60;90.20;;;;;;4973685;28;20398;-73
2022/02/27 07:19:22;;;;;;;1.00;0.60;;;2.70;90.30;;;;;;4994391;28;20473;-74
2022/02/27 07:21:49;;;;;;;0.40;0.20;;;2.80;89.80;;;;;;4994672;28;20593;-72
2022/02/27 07:24:15;;;;;;;0.40;0.20;;;2.80;90.10;;;;;;4977017;28;20406;-73
2022/02/27 07:26:41;;;;;;;0.40;0.20;;;2.80;89.80;;;;;;4995056;28;20407;-72
2022/02/27 07:29:08;;;;;;;0.40;0.20;;;2.90;90.10;;;;;;4995335;28;20398;-73
2022/02/27 07:31:34;;;;;;;0.40;0.20;;;2.90;89.70;;;;;;4994607;28;20401;-73
2022/02/27 07:34:02;;;;;;;0.40;0.40;;;3.10;89.80;;;;;;4994995;28;20382;-73
2022/02/27 07:36:28;;;;;;;0.40;0.20;;;3.20;88.60;;;;;;4994345;28;20465;-73
2022/02/27 07:38:54;;;;;;;0.40;0.20;;;3.20;87.30;;;;;;4995026;28;20494;-73
2022/02/27 07:41:20;;;;;;;0.40;0.30;;;3.20;86.90;;;;;;4993919;28;20803;-74
2022/02/27 07:43:45;;;;;;;0.40;0.20;;;3.30;86.90;;;;;;4994400;28;20398;-73
2022/02/27 07:46:11;;;;;;;0.40;0.20;;;3.30;86.30;;;;;;4994936;28;20859;-73
2022/02/27 07:48:37;;;;;;;0.40;0.20;;;3.40;85.60;;;;;;4994334;28;20424;-73
2022/02/27 07:51:02;;;;;;;0.40;0.20;;;3.40;85.50;;;;;;4994946;28;20411;-73
2022/02/27 07:53:28;;;;;;;0.40;0.20;;;3.50;84.70;;;;;;4976794;28;20879;-73
2022/02/27 07:55:54;;;;;;;0.50;0.40;;;3.50;84.80;;;;;;4994596;28;20413;-73
2022/02/27 07:58:19;;;;;;;0.40;0.20;;;3.60;84.20;;;;;;4994709;28;20386;-73
2022/02/27 08:00:45;;;;;;;0.40;0.20;;;3.70;83.90;;;;;;4993646;28;20391;-73
2022/02/27 08:03:11;;;;;;;0.40;0.20;;;3.60;85.10;;;;;;4994650;28;20386;-74
2022/02/27 08:05:38;;;;;;;0.40;0.30;;;3.70;84.10;;;;;;4993668;28;20409;-74
2022/02/27 08:08:04;;;;;;;0.40;0.20;;;3.80;84.50;;;;;;4994637;28;20401;-73
2022/02/27 08:10:30;;;;;;;0.40;0.20;;;3.90;83.00;;;;;;4993601;28;20414;-73
2022/02/27 08:12:56;;;;;;;0.50;0.50;;;4.00;82.30;;;;;;4976272;28;20674;-73
2022/02/27 08:15:21;;;;;;;0.40;0.20;;;4.00;81.40;;;;;;4976713;28;20493;-73
2022/02/27 08:17:50;;;;;;;0.90;0.70;;;4.10;80.70;;;;;;4993409;28;20397;-74
2022/02/27 08:20:16;;;;;;;0.50;0.50;;;4.20;80.70;;;;;;4994203;28;20398;-72
2022/02/27 08:22:42;;;;;;;0.40;0.20;;;4.20;80.30;;;;;;4993960;28;20478;-74
2022/02/27 08:25:09;;;;;;;0.40;0.20;;;4.40;79.50;;;;;;4976383;28;20418;-73
2022/02/27 08:27:35;;;;;;;0.40;0.20;;;4.40;79.20;;;;;;4994165;28;20390;-74
2022/02/27 08:30:01;;;;;;;0.40;0.20;;;4.50;78.60;;;;;;4973849;28;20914;-74
2022/02/27 08:32:27;;;;;;;0.40;0.30;;;4.60;77.70;;;;;;4976565;28;20937;-73
2022/02/27 08:34:53;;;;;;;0.40;0.20;;;4.70;76.70;;;;;;4975317;28;20402;-74
2022/02/27 08:37:18;;;;;;;0.40;0.20;;;4.70;75.30;;;;;;4994188;28;20949;-74
2022/02/27 08:39:45;;;;;;;0.40;0.20;;;4.80;74.40;;;;;;4976500;28;20398;-72
2022/02/27 08:42:10;;;;;;;0.40;0.23;;;4.90;74.30;;;;;;4993043;28;20390;-72
2022/02/27 08:44:36;;;;;;;0.40;0.20;;;5.00;73.20;;;;;;4993986;28;20393;-73
2022/02/27 08:47:06;;;;;;;0.40;0.20;;;5.00;72.30;;;;;;4993018;28;20398;-73
2022/02/27 08:49:33;;;;;;;4.10;0.70;;;5.10;71.60;;;;;;4993491;28;20440;-73
2022/02/27 08:51:59;;;;;;;0.40;0.20;;;5.20;71.40;;;;;;4993748;28;20406;-72
2022/02/27 08:54:25;;;;;;;0.40;0.20;;;5.30;70.00;;;;;;4975277;28;20422;-74
2022/02/27 08:56:51;;;;;;;0.40;0.20;;;5.30;69.00;;;;;;4975973;28;20390;-73
2022/02/27 08:59:17;;;;;;;0.40;0.20;;;5.30;68.60;;;;;;4992874;28;20383;-73
2022/02/27 09:01:43;;;;;;;0.40;0.28;;;5.50;68.30;;;;;;4992885;28;20953;-73
2022/02/27 09:04:09;;;;;;;0.40;0.20;;;5.50;68.50;;;;;;4975714;28;20478;-74
2022/02/27 09:06:34;;;;;;;0.50;0.40;;;5.60;67.10;;;;;;4992839;28;20494;-74
2022/02/27 09:09:00;;;;;;;0.40;0.20;;;5.60;67.50;;;;;;4993164;28;20864;-72
2022/02/27 09:11:26;;;;;;;0.40;0.20;;;5.80;66.10;;;;;;4974294;28;20446;-72
2022/02/27 09:13:52;;;;;;;0.40;0.20;;;5.70;66.00;;;;;;4976029;28;20429;-73
2022/02/27 09:16:18;;;;;;;0.40;0.30;;;5.70;63.60;;;;;;4974997;28;20815;-74
2022/02/27 09:18:44;;;;;;;0.40;0.20;;;5.70;63.80;;;;;;4992923;28;20438;-73
2022/02/27 09:21:10;;;;;;;0.40;0.30;;;5.80;64.40;;;;;;4992800;28;20696;-73
2022/02/27 09:23:36;;;;;;;0.40;0.20;;;5.80;64.50;;;;;;4992544;28;20383;-73
2022/02/27 09:26:04;;;;;;;0.40;0.20;;;5.90;64.80;;;;;;4975837;28;20751;-74
2022/02/27 09:28:31;;;;;;;0.40;0.20;;;6.00;64.80;;;;;;4992621;28;20382;-74
2022/02/27 09:30:57;;;;;;;0.40;0.20;;;6.00;61.90;;;;;;4993025;28;20391;-73
2022/02/27 09:33:23;;;;;;;0.40;0.20;;;6.00;61.70;;;;;;4974793;28;20399;-73
2022/02/27 09:35:55;;;;;;;0.40;0.20;;;6.10;62.10;;;;;;4992147;28;20464;-73
2022/02/27 09:38:21;;;;;;;0.40;0.20;;;6.10;62.10;;;;;;4992908;28;20432;-72
2022/02/27 09:40:51;;;;;;;0.40;0.20;;;6.20;63.00;;;;;;4974260;28;20394;-72
2022/02/27 09:43:18;;;;;;;0.40;0.20;;;6.30;61.50;;;;;;4975384;28;20537;-73
2022/02/27 09:45:46;;;;;;;0.40;0.20;;;6.50;61.00;;;;;;4974231;28;20536;-73
2022/02/27 09:48:12;;;;;;;0.40;0.20;;;6.50;62.00;;;;;;4992688;28;20429;-73
2022/02/27 09:50:39;;;;;;;0.40;0.20;;;6.60;60.10;;;;;;4991600;28;20398;-74
2022/02/27 09:53:09;;;;;;;0.60;0.60;;;6.50;59.70;;;;;;4992611;28;20501;-73
2022/02/27 09:55:38;;;;;;;0.40;0.20;;;6.60;58.40;;;;;;4975092;28;20851;-74
2022/02/27 09:58:05;;;;;;;0.40;0.20;;;6.70;59.10;;;;;;4992061;28;20478;-73
2022/02/27 10:00:31;;;;;;;0.40;0.20;;;6.80;58.60;;;;;;4992306;28;20529;-73
2022/02/27 10:03:16;;;;;;;0.40;0.20;;;6.80;58.80;;;;;;4991341;28;20453;-73
2022/02/27 10:05:46;;;;;;;0.40;0.20;;;6.90;59.50;;;;;;4992377;28;20751;-73
2022/02/27 10:08:13;;;;;;;0.60;0.60;;;7.00;59.40;;;;;;4992288;28;20426;-72
2022/02/27 10:10:53;;;;;;;0.40;0.20;;;7.20;59.50;;;;;;4973988;28;20429;-72
2022/02/27 10:13:33;;;;;;;0.40;0.30;;;7.30;59.00;;;;;;4992069;28;20391;-72
2022/02/27 10:16:23;;;;;;;0.40;0.20;;;7.30;57.90;;;;;;4973830;28;20883;-73
2022/02/27 10:18:54;;;;;;;0.40;0.20;;;7.50;59.00;;;;;;4982092;28;20493;-72
2022/02/27 10:21:21;;;;;;;0.40;0.20;;;7.70;58.10;;;;;;4974464;28;20891;-72
2022/02/27 10:24:00;;;;;;;0.40;0.20;;;7.60;56.50;;;;;;4974954;28;20398;-73
2022/02/27 10:26:28;;;;;;;0.40;0.20;;;7.60;55.50;;;;;;4991435;28;20851;-73
2022/02/27 10:29:08;;;;;;;0.40;0.20;;;7.70;55.20;;;;;;4992033;28;20398;-73
2022/02/27 10:31:35;;;;;;;0.40;0.20;;;7.80;54.70;;;;;;4974284;28;20399;-73
2022/02/27 10:34:25;;;;;;;0.40;0.20;;;7.80;53.50;;;;;;4991540;28;20387;-74
2022/02/27 10:36:56;;;;;;;0.40;0.30;;;8.00;53.30;;;;;;4974364;28;20403;-73
2022/02/27 10:39:30;;;;;;;0.40;0.20;;;8.10;53.30;;;;;;4991050;28;20464;-73
2022/02/27 10:42:24;;;;;;;0.40;0.20;;;8.10;54.40;;;;;;4991363;28;20387;-72
2022/02/27 10:44:54;;;;;;;0.40;0.20;;;8.30;52.00;;;;;;4971002;28;20400;-73
2022/02/27 10:47:36;;;;;;;0.40;0.30;;;8.20;50.70;;;;;;4973251;28;20414;-74
2022/02/27 10:50:11;;;;;;;0.40;0.20;;;8.30;50.50;;;;;;4991384;28;20386;-72
2022/02/27 10:52:42;;;;;;;0.40;0.30;;;8.30;50.50;;;;;;4973061;28;20398;-72
2022/02/27 10:55:09;;;;;;;0.40;0.20;;;8.50;50.80;;;;;;4974156;28;20485;-72
2022/02/27 10:57:35;;;;;;;0.40;0.20;;;8.50;49.50;;;;;;4990326;28;21127;-72
2022/02/27 11:00:22;;;;;;;0.40;0.20;;;8.60;49.90;;;;;;4991105;28;20390;-73
2022/02/27 11:02:51;;;;;;;0.40;0.20;;;8.70;49.40;;;;;;4991148;28;20926;-73
2022/02/27 11:05:19;;;;;;;1.30;1.20;;;8.80;50.50;;;;;;4991634;28;20417;-73
2022/02/27 11:07:48;;;;;;;0.40;0.30;;;9.00;49.50;;;;;;4991063;28;20426;-73
2022/02/27 11:10:19;;;;;;;0.40;0.20;;;9.20;50.60;;;;;;4991855;28;20397;-73
2022/02/27 11:12:45;;;;;;;0.40;0.30;;;9.20;49.30;;;;;;4967059;28;20462;-73
2022/02/27 11:15:17;;;;;;;1.30;0.90;;;9.30;48.00;;;;;;4982199;28;20396;-73
2022/02/27 11:17:45;;;;;;;0.40;0.20;;;9.40;48.40;;;;;;4987928;28;20939;-72
2022/02/27 11:20:12;;;;;;;0.40;0.30;;;9.60;47.80;;;;;;4990111;28;20405;-72
2022/02/27 11:22:38;;;;;;;0.40;0.30;;;9.90;47.60;;;;;;4989611;28;20398;-73
2022/02/27 11:25:09;;;;;;;0.40;0.20;;;10.10;44.90;;;;;;4973303;28;20414;-73
2022/02/27 11:27:43;;;;;;;0.40;0.20;;;10.10;44.70;;;;;;4982156;28;20398;-74
2022/02/27 11:30:11;;;;;;;0.40;0.28;;;10.60;44.80;;;;;;4979800;28;20388;-73
2022/02/27 11:32:52;;;;;;;0.40;0.20;;;11.20;43.10;;;;;;4979898;28;20390;-74
2022/02/27 11:35:38;;;;;;;0.40;0.20;;;11.60;41.90;;;;;;4981954;28;20424;-71
2022/02/27 11:38:09;;;;;;;0.40;0.20;;;11.90;40.40;;;;;;4972223;28;20407;-71
2022/02/27 11:40:48;;;;;;;0.40;0.20;;;13.00;39.60;;;;;;4980981;28;20742;-71
2022/02/27 11:43:19;;;;;;;0.40;0.30;;;13.20;37.40;;;;;;4971520;28;20441;-72
2022/02/27 11:45:48;;;;;;;0.40;0.30;;;13.00;36.10;;;;;;4970983;28;20423;-73
2022/02/27 11:48:13;;;;;;;0.40;0.20;;;12.90;35.80;;;;;;4971321;28;20421;-72
2022/02/27 11:50:43;;;;;;;0.40;0.20;;;13.60;35.60;;;;;;4971060;28;20897;-71
2022/02/27 11:53:20;;;;;;;0.40;0.30;;;13.50;35.60;;;;;;4970893;28;20421;-72
2022/02/27 11:55:47;;;;;;;0.40;0.22;;;13.80;35.80;;;;;;4971706;28;20480;-72
2022/02/27 11:58:37;;;;;;;0.40;0.20;;;14.00;33.20;;;;;;4970658;28;20507;-73
2022/02/27 12:01:04;;;;;;;0.40;0.40;;;13.50;32.10;;;;;;4961774;28;20480;-73
2022/02/27 12:03:29;;;;;;;0.40;0.20;;;14.20;32.50;;;;;;4984882;28;20410;-72
2022/02/27 12:05:56;;;;;;;0.40;0.20;;;14.80;31.50;;;;;;4988153;28;20759;-72
2022/02/27 12:08:45;;;;;;;0.60;0.60;;;15.70;32.80;;;;;;4991558;28;20430;-71
2022/02/27 12:11:30;;;;;;;0.40;0.30;;;15.60;31.70;;;;;;4987364;28;20414;-73
2022/02/27 12:14:00;;;;;;;0.40;0.20;;;15.60;30.30;;;;;;4988072;28;20529;-73
2022/02/27 12:16:55;;;;;;;0.40;0.30;;;15.50;30.40;;;;;;4988930;28;20402;-72
2022/02/27 12:19:25;;;;;;;0.40;0.30;;;15.50;29.20;;;;;;4966957;28;20653;-73
2022/02/27 12:21:57;;;;;;;0.40;0.30;;;14.90;29.40;;;;;;4987740;28;20412;-72
2022/02/27 12:24:23;;;;;;;0.40;0.20;;;15.50;28.90;;;;;;4989230;28;20457;-72
2022/02/27 12:26:54;;;;;;;0.40;0.30;;;15.60;28.90;;;;;;4992701;28;20418;-73
2022/02/27 12:29:28;;;;;;;0.40;0.30;;;16.00;28.30;;;;;;4989904;28;20976;-73
2022/02/27 12:31:55;;;;;;;0.40;0.20;;;15.70;27.40;;;;;;4985664;28;20437;-73
2022/02/27 12:34:22;;;;;;;0.40;0.20;;;15.40;27.10;;;;;;4987082;28;20395;-72
2022/02/27 12:37:00;;;;;;;0.40;0.20;;;14.70;25.70;;;;;;4976625;28;20473;-73
2022/02/27 12:39:30;;;;;;;0.40;0.20;;;15.10;26.70;;;;;;4972113;28;20505;-72
2022/02/27 12:41:56;;;;;;;0.40;0.20;;;14.30;25.30;;;;;;4976054;28;20398;-72
2022/02/27 12:44:30;;;;;;;0.40;0.20;;;15.60;26.80;;;;;;4992897;28;20378;-72
2022/02/27 12:46:57;;;;;;;0.40;0.20;;;16.20;24.10;;;;;;4976270;28;20788;-73
2022/02/27 12:52:13;;;;;;;0.40;0.30;;;15.10;23.50;;;;;;4994090;28;20478;-72
2022/02/27 12:54:39;;;;;;;0.40;0.20;;;15.80;25.30;;;;;;4992702;28;20387;-71
2022/02/27 12:57:08;;;;;;;0.40;0.30;;;15.20;24.00;;;;;;4993592;28;20465;-71
2022/02/27 12:59:37;;;;;;;0.40;0.20;;;15.90;23.30;;;;;;4993012;28;20406;-72